sensor_id;sensor_type;location;lat;lon;timestamp;pressure;altitude;pressure_sealevel;temperature;humidity
19759;BME280;10038;42.662;23.278;2023-04-25T00:01:25;161603.50;;;11.06;100.00
19759;BME280;10038;42.662;23.278;2023-04-25T00:03:52;161588.81;;;11.01;100.00
19759;BME280;10038;42.662;23.278;2023-04-25T00:06:20;161547.44;;;10.85;100.00
19759;BME280;10038;42.662;23.278;2023-04-25T00:08:48;161679.50;;;11.35;100.00
19759;BME280;10038;42.662;23.278;2023-04-25T00:11:15;161716.84;;;11.49;100.00
19759;BME280;10038;42.662;23.278;2023-04-25T00:13:42;161699.47;;;11.43;100.00
19759;BME280;10038;42.662;23.278;2023-04-25T00:16:08;161680.84;;;11.36;100.00
19759;BME280;10038;42.662;23.278;2023-04-25T00:18:36;161672.81;;;11.33;100.00
19759;BME280;10038;42.662;23.278;2023-04-25T00:21:02;161664.81;;;11.30;100.00
19759;BME280;10038;42.662;23.278;2023-04-25T00:23:31;161671.47;;;11.32;100.00
19759;BME280;10038;42.662;23.278;2023-04-25T00:25:59;161696.84;;;11.42;100.00
19759;BME280;10038;42.662;23.278;2023-04-25T00:28:26;161706.19;;;11.45;100.00
19759;BME280;10038;42.662;23.278;2023-04-25T00:30:53;161658.16;;;11.27;100.00
19759;BME280;10038;42.662;23.278;2023-04-25T00:33:20;161660.84;;;11.28;100.00
19759;BME280;10038;42.662;23.278;2023-04-25T00:35:47;161682.16;;;11.36;100.00
19759;BME280;10038;42.662;23.278;2023-04-25T00:38:13;161698.19;;;11.42;100.00
19759;BME280;10038;42.662;23.278;2023-04-25T00:40:40;161679.50;;;11.35;100.00
19759;BME280;10038;42.662;23.278;2023-04-25T00:43:10;161627.47;;;11.15;100.00
19759;BME280;10038;42.662;23.278;2023-04-25T00:45:38;161630.16;;;11.16;100.00
19759;BME280;10038;42.662;23.278;2023-04-25T00:48:06;161636.81;;;11.19;100.00
19759;BME280;10038;42.662;23.278;2023-04-25T00:50:33;161599.47;;;11.05;100.00
19759;BME280;10038;42.662;23.278;2023-04-25T00:53:00;161562.13;;;10.91;100.00
19759;BME280;10038;42.662;23.278;2023-04-25T00:55:28;161539.50;;;10.82;100.00
19759;BME280;10038;42.662;23.278;2023-04-25T00:57:56;161508.81;;;10.71;100.00
19759;BME280;10038;42.662;23.278;2023-04-25T01:00:25;161502.16;;;10.68;100.00
19759;BME280;10038;42.662;23.278;2023-04-25T01:02:52;161503.44;;;10.68;100.00
19759;BME280;10038;42.662;23.278;2023-04-25T01:05:19;161499.47;;;10.67;100.00
19759;BME280;10038;42.662;23.278;2023-04-25T01:07:46;161491.47;;;10.64;100.00
19759;BME280;10038;42.662;23.278;2023-04-25T01:10:13;161486.16;;;10.62;100.00
19759;BME280;10038;42.662;23.278;2023-04-25T01:12:40;161496.78;;;10.66;100.00
19759;BME280;10038;42.662;23.278;2023-04-25T01:15:08;161498.13;;;10.66;100.00
19759;BME280;10038;42.662;23.278;2023-04-25T01:17:36;161488.78;;;10.63;100.00
19759;BME280;10038;42.662;23.278;2023-04-25T01:20:05;161508.81;;;10.71;100.00
19759;BME280;10038;42.662;23.278;2023-04-25T01:22:36;161515.47;;;10.73;100.00
19759;BME280;10038;42.662;23.278;2023-04-25T01:25:04;161487.50;;;10.62;100.00
19759;BME280;10038;42.662;23.278;2023-04-25T01:27:31;161492.81;;;10.64;100.00
19759;BME280;10038;42.662;23.278;2023-04-25T01:29:59;161499.47;;;10.67;100.00
19759;BME280;10038;42.662;23.278;2023-04-25T01:32:26;161480.84;;;10.60;100.00
19759;BME280;10038;42.662;23.278;2023-04-25T01:34:53;161407.50;;;10.32;100.00
19759;BME280;10038;42.662;23.278;2023-04-25T01:37:20;161451.50;;;10.49;100.00
19759;BME280;10038;42.662;23.278;2023-04-25T01:39:48;161500.81;;;10.68;100.00
19759;BME280;10038;42.662;23.278;2023-04-25T01:42:15;161546.16;;;10.85;100.00
19759;BME280;10038;42.662;23.278;2023-04-25T01:44:42;161580.81;;;10.98;100.00
19759;BME280;10038;42.662;23.278;2023-04-25T01:47:09;161604.84;;;11.07;100.00
19759;BME280;10038;42.662;23.278;2023-04-25T01:49:36;161623.47;;;11.14;100.00
19759;BME280;10038;42.662;23.278;2023-04-25T01:52:03;161568.78;;;10.93;100.00
19759;BME280;10038;42.662;23.278;2023-04-25T01:54:30;161607.47;;;11.08;100.00
19759;BME280;10038;42.662;23.278;2023-04-25T01:56:59;161602.16;;;11.06;100.00
19759;BME280;10038;42.662;23.278;2023-04-25T01:59:27;161615.47;;;11.11;100.00
19759;BME280;10038;42.662;23.278;2023-04-25T02:01:53;161623.47;;;11.14;100.00
19759;BME280;10038;42.662;23.278;2023-04-25T02:04:20;161574.16;;;10.95;100.00
19759;BME280;10038;42.662;23.278;2023-04-25T02:06:47;161502.16;;;10.68;100.00
19759;BME280;10038;42.662;23.278;2023-04-25T02:09:14;161608.81;;;11.08;100.00
19759;BME280;10038;42.662;23.278;2023-04-25T02:11:41;161620.78;;;11.13;100.00
19759;BME280;10038;42.662;23.278;2023-04-25T02:14:09;161622.16;;;11.13;100.00
19759;BME280;10038;42.662;23.278;2023-04-25T02:16:36;161583.44;;;10.99;100.00
19759;BME280;10038;42.662;23.278;2023-04-25T02:19:06;161590.16;;;11.01;100.00
19759;BME280;10038;42.662;23.278;2023-04-25T02:21:33;161588.81;;;11.01;100.00
19759;BME280;10038;42.662;23.278;2023-04-25T02:24:01;161567.50;;;10.93;100.00
19759;BME280;10038;42.662;23.278;2023-04-25T02:26:28;161564.81;;;10.92;100.00
19759;BME280;10038;42.662;23.278;2023-04-25T02:28:56;161548.78;;;10.86;100.00
19759;BME280;10038;42.662;23.278;2023-04-25T02:31:24;161567.50;;;10.93;100.00
19759;BME280;10038;42.662;23.278;2023-04-25T02:33:51;161583.44;;;10.99;100.00
19759;BME280;10038;42.662;23.278;2023-04-25T02:36:18;161542.13;;;10.83;100.00
19759;BME280;10038;42.662;23.278;2023-04-25T02:38:45;161535.47;;;10.81;100.00
19759;BME280;10038;42.662;23.278;2023-04-25T02:41:11;161522.16;;;10.76;100.00
19759;BME280;10038;42.662;23.278;2023-04-25T02:43:38;161500.81;;;10.68;100.00
19759;BME280;10038;42.662;23.278;2023-04-25T02:46:05;161455.47;;;10.50;100.00
19759;BME280;10038;42.662;23.278;2023-04-25T02:48:33;161450.16;;;10.48;100.00
19759;BME280;10038;42.662;23.278;2023-04-25T02:51:00;161426.16;;;10.39;100.00
19759;BME280;10038;42.662;23.278;2023-04-25T02:53:27;161395.50;;;10.28;100.00
19759;BME280;10038;42.662;23.278;2023-04-25T02:55:54;161372.81;;;10.19;100.00
19759;BME280;10038;42.662;23.278;2023-04-25T02:58:23;161331.47;;;10.03;100.00
19759;BME280;10038;42.662;23.278;2023-04-25T03:00:50;161370.19;;;10.18;100.00
19759;BME280;10038;42.662;23.278;2023-04-25T03:03:17;161348.81;;;10.10;100.00
19759;BME280;10038;42.662;23.278;2023-04-25T03:05:48;161311.50;;;9.96;100.00
19759;BME280;10038;42.662;23.278;2023-04-25T03:08:15;161322.13;;;10.00;100.00
19759;BME280;10038;42.662;23.278;2023-04-25T03:10:42;161207.56;;;9.57;100.00
19759;BME280;10038;42.662;23.278;2023-04-25T03:13:09;161366.16;;;10.17;100.00
19759;BME280;10038;42.662;23.278;2023-04-25T03:15:37;161383.50;;;10.23;100.00
19759;BME280;10038;42.662;23.278;2023-04-25T03:18:04;161399.50;;;10.29;100.00
19759;BME280;10038;42.662;23.278;2023-04-25T03:20:31;161386.19;;;10.24;100.00
19759;BME280;10038;42.662;23.278;2023-04-25T03:22:59;161236.88;;;9.68;100.00
19759;BME280;10038;42.662;23.278;2023-04-25T03:25:26;161368.84;;;10.18;100.00
19759;BME280;10038;42.662;23.278;2023-04-25T03:27:53;161324.81;;;10.01;100.00
19759;BME280;10038;42.662;23.278;2023-04-25T03:30:20;161347.47;;;10.09;100.00
19759;BME280;10038;42.662;23.278;2023-04-25T03:32:47;161383.50;;;10.23;100.00
19759;BME280;10038;42.662;23.278;2023-04-25T03:35:14;161351.44;;;10.11;100.00
19759;BME280;10038;42.662;23.278;2023-04-25T03:37:41;161308.81;;;9.95;100.00
19759;BME280;10038;42.662;23.278;2023-04-25T03:40:12;161331.47;;;10.03;100.00
19759;BME280;10038;42.662;23.278;2023-04-25T03:42:39;161324.81;;;10.01;100.00
19759;BME280;10038;42.662;23.278;2023-04-25T03:45:07;161315.47;;;9.97;100.00
19759;BME280;10038;42.662;23.278;2023-04-25T03:47:34;161316.81;;;9.98;100.00
19759;BME280;10038;42.662;23.278;2023-04-25T03:50:01;161311.50;;;9.96;100.00
19759;BME280;10038;42.662;23.278;2023-04-25T03:52:28;161346.13;;;10.09;100.00
19759;BME280;10038;42.662;23.278;2023-04-25T03:54:55;161383.50;;;10.23;100.00
19759;BME280;10038;42.662;23.278;2023-04-25T03:57:23;161376.84;;;10.21;100.00
19759;BME280;10038;42.662;23.278;2023-04-25T03:59:50;161414.19;;;10.35;100.00
19759;BME280;10038;42.662;23.278;2023-04-25T04:02:17;161436.84;;;10.43;100.00
19759;BME280;10038;42.662;23.278;2023-04-25T04:04:44;161471.50;;;10.56;100.00
19759;BME280;10038;42.662;23.278;2023-04-25T04:07:11;161512.81;;;10.72;100.00
19759;BME280;10038;42.662;23.278;2023-04-25T04:09:38;161536.81;;;10.81;100.00
19759;BME280;10038;42.662;23.278;2023-04-25T04:12:05;161519.47;;;10.75;100.00
19759;BME280;10038;42.662;23.278;2023-04-25T04:14:33;161544.81;;;10.84;100.00
19759;BME280;10038;42.662;23.278;2023-04-25T04:17:00;161606.13;;;11.07;100.00
19759;BME280;10038;42.662;23.278;2023-04-25T04:19:27;161647.50;;;11.23;100.00
19759;BME280;10038;42.662;23.278;2023-04-25T04:21:54;161652.81;;;11.25;100.00
19759;BME280;10038;42.662;23.278;2023-04-25T04:24:21;161648.81;;;11.23;100.00
19759;BME280;10038;42.662;23.278;2023-04-25T04:26:48;161631.50;;;11.17;100.00
19759;BME280;10038;42.662;23.278;2023-04-25T04:29:16;161635.47;;;11.18;100.00
19759;BME280;10038;42.662;23.278;2023-04-25T04:31:49;161530.16;;;10.79;100.00
19759;BME280;10038;42.662;23.278;2023-04-25T04:34:18;161586.13;;;11.00;100.00
19759;BME280;10038;42.662;23.278;2023-04-25T04:36:45;161598.13;;;11.04;100.00
19759;BME280;10038;42.662;23.278;2023-04-25T04:39:12;161476.81;;;10.58;100.00
19759;BME280;10038;42.662;23.278;2023-04-25T04:41:39;161592.81;;;11.02;100.00
19759;BME280;10038;42.662;23.278;2023-04-25T04:44:06;161602.16;;;11.06;100.00
19759;BME280;10038;42.662;23.278;2023-04-25T04:46:34;161610.16;;;11.09;100.00
19759;BME280;10038;42.662;23.278;2023-04-25T04:49:05;161623.47;;;11.14;100.00
19759;BME280;10038;42.662;23.278;2023-04-25T04:51:32;161644.81;;;11.22;100.00
19759;BME280;10038;42.662;23.278;2023-04-25T04:53:59;161652.81;;;11.25;100.00
19759;BME280;10038;42.662;23.278;2023-04-25T04:56:27;161650.13;;;11.24;100.00
19759;BME280;10038;42.662;23.278;2023-04-25T04:58:54;161688.84;;;11.39;100.00
19759;BME280;10038;42.662;23.278;2023-04-25T05:01:21;161666.16;;;11.30;100.00
19759;BME280;10038;42.662;23.278;2023-04-25T05:03:48;161679.50;;;11.35;100.00
19759;BME280;10038;42.662;23.278;2023-04-25T05:06:18;161660.84;;;11.28;100.00
19759;BME280;10038;42.662;23.278;2023-04-25T05:08:45;161695.50;;;11.41;100.00
19759;BME280;10038;42.662;23.278;2023-04-25T05:11:12;161698.19;;;11.42;100.00
19759;BME280;10038;42.662;23.278;2023-04-25T05:13:39;161703.50;;;11.44;100.00
19759;BME280;10038;42.662;23.278;2023-04-25T05:16:06;161692.81;;;11.40;100.00
19759;BME280;10038;42.662;23.278;2023-04-25T05:18:33;161710.19;;;11.47;100.00
19759;BME280;10038;42.662;23.278;2023-04-25T05:20:59;161730.19;;;11.54;100.00
19759;BME280;10038;42.662;23.278;2023-04-25T05:23:28;161702.16;;;11.44;100.00
19759;BME280;10038;42.662;23.278;2023-04-25T05:25:55;161747.53;;;11.61;100.00
19759;BME280;10038;42.662;23.278;2023-04-25T05:28:22;161758.19;;;11.65;100.00
19759;BME280;10038;42.662;23.278;2023-04-25T05:30:49;161775.59;;;11.71;100.00
19759;BME280;10038;42.662;23.278;2023-04-25T05:33:16;161778.28;;;11.72;100.00
19759;BME280;10038;42.662;23.278;2023-04-25T05:35:43;161735.56;;;11.56;100.00
19759;BME280;10038;42.662;23.278;2023-04-25T05:38:10;161714.16;;;11.48;100.00
19759;BME280;10038;42.662;23.278;2023-04-25T05:40:39;161730.19;;;11.54;100.00
19759;BME280;10038;42.662;23.278;2023-04-25T05:43:06;161780.91;;;11.73;100.00
19759;BME280;10038;42.662;23.278;2023-04-25T05:45:33;161850.34;;;12.00;100.00
19759;BME280;10038;42.662;23.278;2023-04-25T05:47:59;161887.72;;;12.14;100.00
19759;BME280;10038;42.662;23.278;2023-04-25T05:50:26;161865.00;;;12.05;100.00
19759;BME280;10038;42.662;23.278;2023-04-25T05:52:53;161847.66;;;11.99;100.00
19759;BME280;10038;42.662;23.278;2023-04-25T05:55:20;161852.97;;;12.01;100.00
19759;BME280;10038;42.662;23.278;2023-04-25T05:57:48;161891.69;;;12.15;100.00
19759;BME280;10038;42.662;23.278;2023-04-25T06:00:15;161887.72;;;12.14;100.00
19759;BME280;10038;42.662;23.278;2023-04-25T06:02:42;161858.34;;;12.03;100.00
19759;BME280;10038;42.662;23.278;2023-04-25T06:05:09;161877.00;;;12.10;100.00
19759;BME280;10038;42.662;23.278;2023-04-25T06:07:36;161903.69;;;12.20;100.00
19759;BME280;10038;42.662;23.278;2023-04-25T06:10:04;161879.69;;;12.11;100.00
19759;BME280;10038;42.662;23.278;2023-04-25T06:12:32;161791.63;;;11.77;100.00
19759;BME280;10038;42.662;23.278;2023-04-25T06:15:00;161861.00;;;12.04;100.00
19759;BME280;10038;42.662;23.278;2023-04-25T06:17:27;161863.69;;;12.05;100.00
19759;BME280;10038;42.662;23.278;2023-04-25T06:19:54;161865.00;;;12.05;100.00
19759;BME280;10038;42.662;23.278;2023-04-25T06:22:21;161865.00;;;12.05;100.00
19759;BME280;10038;42.662;23.278;2023-04-25T06:24:48;162029.19;;;12.67;100.00
19759;BME280;10038;42.662;23.278;2023-04-25T06:27:15;162046.56;;;12.74;100.00
19759;BME280;10038;42.662;23.278;2023-04-25T06:29:41;162200.19;;;13.32;100.00
19759;BME280;10038;42.662;23.278;2023-04-25T06:32:10;162230.88;;;13.43;99.77
19759;BME280;10038;42.662;23.278;2023-04-25T06:34:36;162233.56;;;13.44;98.58
19759;BME280;10038;42.662;23.278;2023-04-25T06:37:03;162258.97;;;13.54;98.39
19759;BME280;10038;42.662;23.278;2023-04-25T06:39:30;162305.72;;;13.72;97.97
19759;BME280;10038;42.662;23.278;2023-04-25T06:41:57;162264.31;;;13.56;97.79
19759;BME280;10038;42.662;23.278;2023-04-25T06:44:24;162150.75;;;13.13;99.82
19759;BME280;10038;42.662;23.278;2023-04-25T06:46:51;162087.94;;;12.89;100.00
19759;BME280;10038;42.662;23.278;2023-04-25T06:49:20;162209.53;;;13.35;100.00
19759;BME280;10038;42.662;23.278;2023-04-25T06:51:47;162349.81;;;13.88;98.50
19759;BME280;10038;42.662;23.278;2023-04-25T06:54:14;162448.69;;;14.26;96.30
19759;BME280;10038;42.662;23.278;2023-04-25T06:56:40;162375.22;;;13.98;94.24
19759;BME280;10038;42.662;23.278;2023-04-25T06:59:07;162395.28;;;14.05;94.93
19759;BME280;10038;42.662;23.278;2023-04-25T07:01:34;162379.22;;;13.99;95.51
19759;BME280;10038;42.662;23.278;2023-04-25T07:04:01;162285.69;;;13.64;96.80
19759;BME280;10038;42.662;23.278;2023-04-25T07:06:30;162210.84;;;13.36;98.26
19759;BME280;10038;42.662;23.278;2023-04-25T07:08:56;162249.63;;;13.50;99.94
19759;BME280;10038;42.662;23.278;2023-04-25T07:11:23;162269.66;;;13.58;97.73
19759;BME280;10038;42.662;23.278;2023-04-25T07:13:50;162292.38;;;13.67;97.69
19759;BME280;10038;42.662;23.278;2023-04-25T07:16:17;162277.66;;;13.61;97.92
19759;BME280;10038;42.662;23.278;2023-04-25T07:18:44;162360.53;;;13.92;96.83
19759;BME280;10038;42.662;23.278;2023-04-25T07:21:11;162459.41;;;14.30;94.99
19759;BME280;10038;42.662;23.278;2023-04-25T07:23:39;162542.38;;;14.61;93.52
19759;BME280;10038;42.662;23.278;2023-04-25T07:26:06;162650.69;;;15.02;92.66
19759;BME280;10038;42.662;23.278;2023-04-25T07:28:33;162710.84;;;15.24;91.51
19759;BME280;10038;42.662;23.278;2023-04-25T07:31:00;162819.28;;;15.65;89.68
19759;BME280;10038;42.662;23.278;2023-04-25T07:33:28;162677.41;;;15.12;89.61
19759;BME280;10038;42.662;23.278;2023-04-25T07:35:55;162601.22;;;14.83;91.89
19759;BME280;10038;42.662;23.278;2023-04-25T07:38:23;162751.00;;;15.40;90.72
19759;BME280;10038;42.662;23.278;2023-04-25T07:40:54;162718.88;;;15.27;90.46
19759;BME280;10038;42.662;23.278;2023-04-25T07:43:21;162720.22;;;15.28;90.10
19759;BME280;10038;42.662;23.278;2023-04-25T07:45:48;162641.31;;;14.98;91.21
19759;BME280;10038;42.662;23.278;2023-04-25T07:48:17;162609.19;;;14.86;91.48
19759;BME280;10038;42.662;23.278;2023-04-25T07:50:44;162633.28;;;14.95;90.68
19759;BME280;10038;42.662;23.278;2023-04-25T07:53:12;162609.19;;;14.86;90.74
19759;BME280;10038;42.662;23.278;2023-04-25T07:55:39;162665.41;;;15.07;90.61
19759;BME280;10038;42.662;23.278;2023-04-25T07:58:07;162702.84;;;15.21;90.18
19759;BME280;10038;42.662;23.278;2023-04-25T08:00:35;162724.25;;;15.29;89.66
19759;BME280;10038;42.662;23.278;2023-04-25T08:03:02;162753.69;;;15.41;88.67
19759;BME280;10038;42.662;23.278;2023-04-25T08:05:29;162812.59;;;15.63;85.96
19759;BME280;10038;42.662;23.278;2023-04-25T08:07:56;162939.72;;;16.11;84.43
19759;BME280;10038;42.662;23.278;2023-04-25T08:10:24;163016.03;;;16.39;83.55
19759;BME280;10038;42.662;23.278;2023-04-25T08:12:54;163096.41;;;16.70;80.62
19759;BME280;10038;42.662;23.278;2023-04-25T08:15:23;163089.72;;;16.67;79.35
19759;BME280;10038;42.662;23.278;2023-04-25T08:17:51;163198.19;;;17.08;80.62
19759;BME280;10038;42.662;23.278;2023-04-25T08:20:18;163215.56;;;17.15;80.87
19759;BME280;10038;42.662;23.278;2023-04-25T08:22:45;163208.88;;;17.12;78.77
19759;BME280;10038;42.662;23.278;2023-04-25T08:25:14;163155.34;;;16.92;79.10
19759;BME280;10038;42.662;23.278;2023-04-25T08:27:41;163048.13;;;16.51;81.26
19759;BME280;10038;42.662;23.278;2023-04-25T08:30:10;163002.59;;;16.34;80.13
19759;BME280;10038;42.662;23.278;2023-04-25T08:32:38;162989.22;;;16.29;80.20
19759;BME280;10038;42.662;23.278;2023-04-25T08:35:06;162851.38;;;15.77;81.41
19759;BME280;10038;42.662;23.278;2023-04-25T08:37:34;162847.38;;;15.76;82.81
19759;BME280;10038;42.662;23.278;2023-04-25T08:40:01;162801.88;;;15.59;83.84
19759;BME280;10038;42.662;23.278;2023-04-25T08:42:33;162855.41;;;15.79;84.34
19759;BME280;10038;42.662;23.278;2023-04-25T08:45:01;163651.28;;;18.78;76.53
19759;BME280;10038;42.662;23.278;2023-04-25T08:47:29;164615.38;;;22.41;62.39
19759;BME280;10038;42.662;23.278;2023-04-25T08:50:02;165176.38;;;24.51;57.02
19759;BME280;10038;42.662;23.278;2023-04-25T08:52:36;165533.31;;;25.85;48.35
19759;BME280;10038;42.662;23.278;2023-04-25T08:55:04;164997.41;;;23.84;45.53
19759;BME280;10038;42.662;23.278;2023-04-25T08:57:34;164635.53;;;22.48;56.65
19759;BME280;10038;42.662;23.278;2023-04-25T09:00:02;164739.13;;;22.87;53.76
19759;BME280;10038;42.662;23.278;2023-04-25T09:02:30;164597.91;;;22.34;57.37
19759;BME280;10038;42.662;23.278;2023-04-25T09:04:58;164170.66;;;20.74;62.23
19759;BME280;10038;42.662;23.278;2023-04-25T09:07:27;164537.41;;;22.11;57.58
19759;BME280;10038;42.662;23.278;2023-04-25T09:09:54;165126.59;;;24.32;48.53
19759;BME280;10038;42.662;23.278;2023-04-25T09:12:21;165348.75;;;25.15;43.04
19759;BME280;10038;42.662;23.278;2023-04-25T09:15:12;165106.41;;;24.25;44.09
19759;BME280;10038;42.662;23.278;2023-04-25T09:17:41;164528.03;;;22.08;50.47
19759;BME280;10038;42.662;23.278;2023-04-25T09:20:11;163992.03;;;20.07;52.82
19759;BME280;10038;42.662;23.278;2023-04-25T09:22:40;163568.06;;;18.47;53.20
19759;BME280;10038;42.662;23.278;2023-04-25T09:25:09;163404.53;;;17.86;54.25
19759;BME280;10038;42.662;23.278;2023-04-25T09:27:49;163242.41;;;17.25;54.79
19759;BME280;10038;42.662;23.278;2023-04-25T09:30:16;163219.63;;;17.16;55.25
19759;BME280;10038;42.662;23.278;2023-04-25T09:32:43;163238.34;;;17.23;55.62
19759;BME280;10038;42.662;23.278;2023-04-25T09:35:11;163400.53;;;17.84;53.68
19759;BME280;10038;42.662;23.278;2023-04-25T09:37:55;163353.59;;;17.66;53.88
19759;BME280;10038;42.662;23.278;2023-04-25T09:40:22;163600.31;;;18.59;52.89
19759;BME280;10038;42.662;23.278;2023-04-25T09:42:49;163957.16;;;19.93;47.44
19759;BME280;10038;42.662;23.278;2023-04-25T09:45:16;164739.13;;;22.87;42.65
19759;BME280;10038;42.662;23.278;2023-04-25T09:47:43;165294.88;;;24.95;37.36
19759;BME280;10038;42.662;23.278;2023-04-25T09:50:14;164814.41;;;23.15;40.22
19759;BME280;10038;42.662;23.278;2023-04-25T09:52:41;164356.00;;;21.43;42.61
19759;BME280;10038;42.662;23.278;2023-04-25T09:55:10;163986.69;;;20.05;47.29
19759;BME280;10038;42.662;23.278;2023-04-25T09:57:37;163990.69;;;20.06;48.51
19759;BME280;10038;42.662;23.278;2023-04-25T10:00:07;163847.13;;;19.52;45.38
19759;BME280;10038;42.662;23.278;2023-04-25T10:02:38;163785.34;;;19.29;46.99
19759;BME280;10038;42.662;23.278;2023-04-25T10:05:10;163562.72;;;18.45;53.17
19759;BME280;10038;42.662;23.278;2023-04-25T10:07:37;163412.56;;;17.89;51.58
19759;BME280;10038;42.662;23.278;2023-04-25T10:10:05;163304.00;;;17.48;53.02
19759;BME280;10038;42.662;23.278;2023-04-25T10:12:34;162811.25;;;15.62;66.93
19759;BME280;10038;42.662;23.278;2023-04-25T10:15:02;162712.19;;;15.25;81.15
19759;BME280;10038;42.662;23.278;2023-04-25T10:17:31;162618.56;;;14.90;79.95
19759;BME280;10038;42.662;23.278;2023-04-25T10:19:59;162771.09;;;15.47;81.58
19759;BME280;10038;42.662;23.278;2023-04-25T10:22:32;163214.22;;;17.14;75.93
19759;BME280;10038;42.662;23.278;2023-04-25T10:25:01;163794.75;;;19.32;70.13
19759;BME280;10038;42.662;23.278;2023-04-25T10:27:29;164462.16;;;21.83;59.57
19759;BME280;10038;42.662;23.278;2023-04-25T10:30:06;164934.13;;;23.60;52.84
19759;BME280;10038;42.662;23.278;2023-04-25T10:32:35;165478.06;;;25.64;46.89
19759;BME280;10038;42.662;23.278;2023-04-25T10:35:14;165254.53;;;24.80;44.08
19759;BME280;10038;42.662;23.278;2023-04-25T10:37:58;164588.47;;;22.30;45.80
19759;BME280;10038;42.662;23.278;2023-04-25T10:40:25;164155.88;;;20.68;48.05
19759;BME280;10038;42.662;23.278;2023-04-25T10:42:54;164392.25;;;21.57;48.19
19759;BME280;10038;42.662;23.278;2023-04-25T10:45:22;164413.75;;;21.65;44.76
19759;BME280;10038;42.662;23.278;2023-04-25T10:47:50;164138.41;;;20.62;45.99
19759;BME280;10038;42.662;23.278;2023-04-25T10:50:17;163860.53;;;19.57;48.94
19759;BME280;10038;42.662;23.278;2023-04-25T10:52:44;163733.03;;;19.09;50.29
19759;BME280;10038;42.662;23.278;2023-04-25T10:55:11;163600.31;;;18.59;52.22
19759;BME280;10038;42.662;23.278;2023-04-25T10:57:40;163653.91;;;18.79;51.66
19759;BME280;10038;42.662;23.278;2023-04-25T11:00:10;164076.63;;;20.38;48.09
19759;BME280;10038;42.662;23.278;2023-04-25T11:02:41;164249.84;;;21.03;47.01
19759;BME280;10038;42.662;23.278;2023-04-25T11:05:10;164558.94;;;22.19;45.02
19759;BME280;10038;42.662;23.278;2023-04-25T11:07:49;164507.84;;;22.00;44.45
19759;BME280;10038;42.662;23.278;2023-04-25T11:10:17;164437.94;;;21.74;44.97
19759;BME280;10038;42.662;23.278;2023-04-25T11:12:45;164174.66;;;20.75;46.56
19759;BME280;10038;42.662;23.278;2023-04-25T11:15:13;163871.28;;;19.61;50.33
19759;BME280;10038;42.662;23.278;2023-04-25T11:17:41;163861.88;;;19.58;51.34
19759;BME280;10038;42.662;23.278;2023-04-25T11:20:10;163813.56;;;19.39;50.80
19759;BME280;10038;42.662;23.278;2023-04-25T11:22:39;163700.88;;;18.97;51.83
19759;BME280;10038;42.662;23.278;2023-04-25T11:25:08;163562.72;;;18.45;54.43
19759;BME280;10038;42.662;23.278;2023-04-25T11:27:37;163338.88;;;17.61;57.39
19759;BME280;10038;42.662;23.278;2023-04-25T11:30:13;163101.75;;;16.72;59.00
19759;BME280;10038;42.662;23.278;2023-04-25T11:32:42;163188.81;;;17.04;60.43
19759;BME280;10038;42.662;23.278;2023-04-25T11:35:09;163112.44;;;16.76;61.27
19759;BME280;10038;42.662;23.278;2023-04-25T11:37:36;163050.81;;;16.52;64.07
19759;BME280;10038;42.662;23.278;2023-04-25T11:40:10;162978.53;;;16.25;66.82
19759;BME280;10038;42.662;23.278;2023-04-25T11:42:39;162919.66;;;16.03;70.11
19759;BME280;10038;42.662;23.278;2023-04-25T11:45:13;162842.03;;;15.74;73.27
19759;BME280;10038;42.662;23.278;2023-04-25T11:47:42;162726.91;;;15.30;75.04
19759;BME280;10038;42.662;23.278;2023-04-25T11:50:09;162656.03;;;15.04;78.44
19759;BME280;10038;42.662;23.278;2023-04-25T11:52:38;162633.28;;;14.95;74.13
19759;BME280;10038;42.662;23.278;2023-04-25T11:55:07;162629.28;;;14.94;76.12
19759;BME280;10038;42.662;23.278;2023-04-25T11:57:34;162650.69;;;15.02;77.92
19759;BME280;10038;42.662;23.278;2023-04-25T12:00:08;162874.13;;;15.86;76.91
19759;BME280;10038;42.662;23.278;2023-04-25T12:02:36;163257.13;;;17.30;72.00
19759;BME280;10038;42.662;23.278;2023-04-25T12:05:07;163585.56;;;18.54;69.94
19759;BME280;10038;42.662;23.278;2023-04-25T12:07:35;163886.00;;;19.67;66.45
19759;BME280;10038;42.662;23.278;2023-04-25T12:10:07;164012.16;;;20.14;61.72
19759;BME280;10038;42.662;23.278;2023-04-25T12:12:34;164077.97;;;20.39;59.06
19759;BME280;10038;42.662;23.278;2023-04-25T12:15:09;164016.22;;;20.16;59.38
19759;BME280;10038;42.662;23.278;2023-04-25T12:17:36;163903.47;;;19.73;58.79
19759;BME280;10038;42.662;23.278;2023-04-25T12:20:10;163867.25;;;19.60;60.49
19759;BME280;10038;42.662;23.278;2023-04-25T12:22:40;163771.94;;;19.24;61.54
19759;BME280;10038;42.662;23.278;2023-04-25T12:25:10;163710.28;;;19.01;63.10
19759;BME280;10038;42.662;23.278;2023-04-25T12:27:37;163505.09;;;18.23;59.03
19759;BME280;10038;42.662;23.278;2023-04-25T12:30:06;163444.75;;;18.01;57.88
19759;BME280;10038;42.662;23.278;2023-04-25T12:32:33;163479.59;;;18.14;59.38
19759;BME280;10038;42.662;23.278;2023-04-25T12:35:00;163191.50;;;17.05;65.76
19759;BME280;10038;42.662;23.278;2023-04-25T12:37:29;163096.41;;;16.70;67.22
19759;BME280;10038;42.662;23.278;2023-04-25T12:39:56;163091.03;;;16.68;67.88